createdAt,value
2017-09-27T00:00:54.683Z,76.96
2017-09-27T00:01:54.724Z,76.77
2017-09-27T00:03:51.251Z,76.82
2017-09-27T00:04:51.156Z,77.11
2017-09-27T00:06:44.788Z,77.02
2017-09-27T00:07:44.948Z,77.11
2017-09-27T00:09:39.324Z,77.31
2017-09-27T00:10:39.333Z,77.11
2017-09-27T00:12:35.213Z,77.40
2017-09-27T00:13:35.220Z,76.92
2017-09-27T00:15:29.836Z,76.92
2017-09-27T00:16:29.988Z,77.02
2017-09-27T00:18:24.189Z,77.40
2017-09-27T00:19:24.268Z,77.11
2017-09-27T00:21:18.708Z,77.88
2017-09-27T00:22:18.764Z,77.69
2017-09-27T00:24:22.413Z,77.40
2017-09-27T00:25:13.269Z,77.59
2017-09-27T00:27:07.794Z,77.21
2017-09-27T00:28:07.837Z,77.88
2017-09-27T00:30:03.773Z,77.50
2017-09-27T00:31:03.797Z,77.78
2017-09-27T00:32:58.340Z,77.78
2017-09-27T00:33:58.286Z,77.59
2017-09-27T00:35:52.773Z,77.59
2017-09-27T00:36:52.853Z,77.50
2017-09-27T00:38:46.237Z,77.69
2017-09-27T00:39:46.374Z,77.50
2017-09-27T00:41:40.995Z,77.31
2017-09-27T00:42:40.830Z,77.50
2017-09-27T00:44:48.486Z,77.40
2017-09-27T00:45:48.558Z,77.88
2017-09-27T00:47:44.431Z,77.88
2017-09-27T00:48:51.974Z,78.27
2017-09-27T00:50:40.726Z,77.88
2017-09-27T00:51:40.510Z,77.31
2017-09-27T00:53:36.478Z,78.17
2017-09-27T00:54:36.502Z,78.22
2017-09-27T00:56:33.190Z,77.59
2017-09-27T00:57:33.030Z,77.75
2017-09-27T00:59:26.690Z,78.03
2017-09-27T01:00:26.527Z,77.75
2017-09-27T01:02:21.119Z,77.75
2017-09-27T01:03:21.103Z,77.84
2017-09-27T01:05:15.534Z,78.03
2017-09-27T01:06:23.135Z,77.94
2017-09-27T01:08:10.063Z,78.03
2017-09-27T01:09:10.151Z,78.42
2017-09-27T01:11:06.079Z,77.84
2017-09-27T01:12:06.024Z,78.42
2017-09-27T01:14:00.743Z,78.61
2017-09-27T01:15:00.719Z,78.80
2017-09-27T01:16:55.690Z,78.89
2017-09-27T01:18:04.384Z,78.51
2017-09-27T01:19:52.487Z,78.22
2017-09-27T01:20:52.400Z,78.70
2017-09-27T01:22:46.720Z,78.51
2017-09-27T01:23:46.728Z,78.61
2017-09-27T01:25:40.456Z,78.32
2017-09-27T01:26:40.296Z,78.51
2017-09-27T01:28:34.735Z,78.89
2017-09-27T01:29:34.904Z,78.42
2017-09-27T01:31:29.271Z,78.70
2017-09-27T01:32:29.335Z,79.18
2017-09-27T01:34:23.799Z,79.08
2017-09-27T01:35:23.808Z,78.51
2017-09-27T01:37:18.668Z,78.42
2017-09-27T01:38:18.512Z,78.61
2017-09-27T01:40:12.960Z,78.80
2017-09-27T01:41:13.000Z,78.89
2017-09-27T01:43:08.824Z,78.99
2017-09-27T01:44:08.977Z,79.08
2017-09-27T01:46:03.280Z,78.89
2017-09-27T01:47:11.833Z,79.08
2017-09-27T01:48:57.777Z,78.99
2017-09-27T01:49:57.745Z,78.99
2017-09-27T01:51:52.161Z,79.37
2017-09-27T01:52:52.337Z,79.37
2017-09-27T01:54:46.672Z,79.18
2017-09-27T01:55:46.729Z,79.57
2017-09-27T01:57:40.225Z,79.28
2017-09-27T01:58:40.219Z,79.08
2017-09-27T02:00:34.641Z,79.66
2017-09-27T02:01:34.689Z,79.57
2017-09-27T02:03:29.129Z,79.57
2017-09-27T02:04:36.985Z,79.75
2017-09-27T02:06:23.665Z,79.75
2017-09-27T02:07:23.793Z,80.14
2017-09-27T02:09:19.817Z,80.43
2017-09-27T02:10:19.889Z,79.47
2017-09-27T02:12:14.419Z,80.24
2017-09-27T02:13:14.348Z,80.04
2017-09-27T02:15:09.139Z,79.66
2017-09-27T02:16:08.979Z,80.52
2017-09-27T02:18:03.251Z,80.04
2017-09-27T02:19:03.371Z,79.85
2017-09-27T02:20:57.867Z,80.14
2017-09-27T02:21:57.772Z,80.04
2017-09-27T02:23:51.204Z,79.66
2017-09-27T02:24:51.347Z,79.57
2017-09-27T02:26:48.700Z,79.66
2017-09-27T02:27:47.515Z,80.43
2017-09-27T02:29:41.923Z,79.85
2017-09-27T02:30:42.115Z,80.04
2017-09-27T02:32:36.467Z,79.75
2017-09-27T02:33:36.547Z,80.62
2017-09-27T02:35:29.922Z,80.43
2017-09-27T02:36:30.044Z,80.24
2017-09-27T02:38:24.572Z,80.43
2017-09-27T02:39:24.571Z,80.24
2017-09-27T02:41:19.052Z,80.33
2017-09-27T02:42:19.099Z,79.85
2017-09-27T02:44:13.539Z,79.72
2017-09-27T02:45:13.459Z,79.72
2017-09-27T02:47:07.964Z,79.14
2017-09-27T02:48:07.956Z,79.24
2017-09-27T02:50:02.542Z,79.72
2017-09-27T02:51:02.502Z,80.38
2017-09-27T02:52:58.892Z,79.72
2017-09-27T02:53:59.115Z,80.29
2017-09-27T02:55:53.381Z,80.19
2017-09-27T02:56:53.468Z,80.00
2017-09-27T02:58:49.597Z,80.00
2017-09-27T02:59:49.580Z,80.38
2017-09-27T03:01:43.148Z,80.10
2017-09-27T03:02:42.998Z,79.43
2017-09-27T03:04:37.580Z,80.29
2017-09-27T03:05:37.540Z,80.38
2017-09-27T03:07:33.564Z,80.38
2017-09-27T03:08:33.623Z,80.38
2017-09-27T03:10:36.700Z,80.19
2017-09-27T03:11:27.996Z,80.48
2017-09-27T03:13:22.444Z,80.10
2017-09-27T03:14:22.604Z,80.38
2017-09-27T03:16:17.021Z,80.38
2017-09-27T03:17:17.133Z,80.38
2017-09-27T03:19:11.541Z,80.48
2017-09-27T03:20:11.549Z,80.38
2017-09-27T03:22:06.076Z,80.48
2017-09-27T03:23:06.156Z,80.77
2017-09-27T03:24:59.581Z,80.58
2017-09-27T03:26:07.253Z,80.77
2017-09-27T03:27:54.015Z,80.58
2017-09-27T03:28:54.127Z,80.10
2017-09-27T03:30:50.120Z,80.29
2017-09-27T03:31:50.064Z,80.38
2017-09-27T03:33:46.103Z,80.29
2017-09-27T03:34:46.143Z,80.38
2017-09-27T03:36:40.575Z,80.58
2017-09-27T03:37:40.584Z,80.48
2017-09-27T03:39:36.655Z,80.58
2017-09-27T03:40:36.737Z,80.48
2017-09-27T03:42:31.016Z,80.67
2017-09-27T03:43:41.215Z,80.96
2017-09-27T03:45:26.775Z,80.87
2017-09-27T03:46:26.600Z,80.77
2017-09-27T03:48:21.113Z,80.58
2017-09-27T03:49:21.088Z,80.48
2017-09-27T03:51:17.000Z,80.77
2017-09-27T03:52:17.112Z,80.58
2017-09-27T03:54:11.569Z,80.77
2017-09-27T03:55:11.632Z,80.48
2017-09-27T03:57:07.576Z,80.58
2017-09-27T03:58:07.584Z,80.58
2017-09-27T04:00:02.121Z,81.05
2017-09-27T04:01:10.697Z,81.15
2017-09-27T04:02:56.649Z,80.96
2017-09-27T04:04:05.425Z,80.77
2017-09-27T04:05:50.284Z,80.96
2017-09-27T04:06:50.377Z,80.77
2017-09-27T04:08:43.921Z,80.58
2017-09-27T04:09:43.897Z,80.58
2017-09-27T04:11:38.497Z,80.58
2017-09-27T04:12:38.529Z,80.67
2017-09-27T04:14:33.153Z,81.34
2017-09-27T04:15:33.113Z,80.77
2017-09-27T04:19:11.153Z,81.05
2017-09-27T04:20:11.289Z,80.96
2017-09-27T04:22:04.825Z,80.96
2017-09-27T04:23:13.257Z,80.96
2017-09-27T04:25:10.873Z,81.15
2017-09-27T04:26:10.850Z,81.34
2017-09-27T04:28:06.345Z,81.15
2017-09-27T04:29:05.489Z,81.25
2017-09-27T04:30:59.930Z,81.15
2017-09-27T04:31:59.873Z,81.05
2017-09-27T04:35:35.098Z,81.05
2017-09-27T04:36:35.330Z,81.25
2017-09-27T04:38:29.802Z,80.77
2017-09-27T04:39:29.610Z,81.34
2017-09-27T04:41:24.202Z,81.34
2017-09-27T04:42:24.122Z,81.25
2017-09-27T04:44:17.234Z,81.25
2017-09-27T04:45:17.266Z,81.25
2017-09-27T04:47:23.322Z,81.25
2017-09-27T04:48:23.554Z,81.44
2017-09-27T04:50:29.436Z,81.34
2017-09-27T04:51:30.075Z,81.15
2017-09-27T04:53:23.914Z,81.34
2017-09-27T04:54:24.403Z,80.96
2017-09-27T04:56:17.890Z,81.15
2017-09-27T04:57:17.450Z,81.25
2017-09-27T04:59:13.527Z,81.15
2017-09-27T05:00:13.701Z,81.34
2017-09-27T05:02:21.640Z,81.44
2017-09-27T05:03:21.479Z,81.73
2017-09-27T05:05:17.355Z,81.54
2017-09-27T05:06:18.690Z,81.73
2017-09-27T05:08:10.476Z,81.15
2017-09-27T05:09:10.586Z,81.25
2017-09-27T05:11:06.490Z,81.82
2017-09-27T05:12:06.442Z,81.63
2017-09-27T05:14:01.674Z,81.82
2017-09-27T05:15:01.235Z,81.54
2017-09-27T05:16:55.705Z,81.63
2017-09-27T05:17:54.706Z,81.34
2017-09-27T05:19:48.937Z,81.54
2017-09-27T05:20:49.217Z,81.44
2017-09-27T05:22:44.568Z,81.63
2017-09-27T05:23:53.183Z,81.82
2017-09-27T05:25:38.977Z,82.20
2017-09-27T05:26:39.144Z,81.73
2017-09-27T05:28:32.424Z,82.40
2017-09-27T05:29:32.535Z,82.49
2017-09-27T05:31:26.992Z,82.20
2017-09-27T05:32:27.048Z,81.86
2017-09-27T05:34:21.440Z,82.40
2017-09-27T05:35:21.560Z,81.77
2017-09-27T05:37:17.457Z,81.67
2017-09-27T05:38:17.640Z,81.34
2017-09-27T05:40:10.985Z,81.48
2017-09-27T05:41:10.984Z,81.57
2017-09-27T05:43:05.489Z,82.15
2017-09-27T05:44:05.537Z,81.38
2017-09-27T05:46:00.009Z,81.38
2017-09-27T05:47:00.009Z,81.67
2017-09-27T05:48:54.488Z,81.20
2017-09-27T05:49:54.523Z,81.67
2017-09-27T05:51:48.948Z,81.38
2017-09-27T05:52:49.009Z,81.67
2017-09-27T05:54:43.545Z,81.57
2017-09-27T05:55:43.537Z,81.67
2017-09-27T05:57:37.953Z,81.38
2017-09-27T05:58:38.009Z,81.77
2017-09-27T06:00:32.465Z,81.77
2017-09-27T06:01:32.473Z,81.57
2017-09-27T06:03:26.954Z,81.67
2017-09-27T06:04:27.017Z,81.67
2017-09-27T06:06:21.507Z,81.57
2017-09-27T06:07:21.529Z,81.38
2017-09-27T06:09:15.969Z,81.48
2017-09-27T06:10:16.034Z,81.77
2017-09-27T06:12:10.522Z,81.38
2017-09-27T06:13:10.489Z,81.67
2017-09-27T06:15:16.489Z,81.77
2017-09-27T06:16:16.530Z,81.57
2017-09-27T06:18:10.970Z,81.67
2017-09-27T06:19:11.042Z,81.20
2017-09-27T06:21:05.499Z,81.38
2017-09-27T06:22:05.515Z,81.29
2017-09-27T06:23:58.978Z,81.86
2017-09-27T06:24:59.106Z,81.77
2017-09-27T06:26:53.475Z,81.96
2017-09-27T06:27:53.506Z,81.67
2017-09-27T06:29:56.666Z,81.48
2017-09-27T06:30:47.979Z,81.77
2017-09-27T06:32:44.019Z,81.77
2017-09-27T06:33:44.071Z,81.57
2017-09-27T06:35:39.987Z,81.67
2017-09-27T06:36:39.995Z,81.96
2017-09-27T06:38:34.508Z,81.77
2017-09-27T06:39:34.563Z,81.57
2017-09-27T06:41:28.980Z,81.67
2017-09-27T06:42:29.051Z,81.57
2017-09-27T06:44:23.460Z,81.67
2017-09-27T06:45:23.492Z,81.20
2017-09-27T06:47:18.028Z,81.62
2017-09-27T06:48:18.028Z,81.48
2017-09-27T06:50:12.460Z,81.48
2017-09-27T06:51:12.516Z,81.81
2017-09-27T06:53:06.964Z,81.33
2017-09-27T06:54:07.028Z,81.23
2017-09-27T06:56:01.532Z,81.43
2017-09-27T06:57:01.508Z,81.13
2017-09-27T06:58:55.965Z,81.33
2017-09-27T06:59:56.021Z,81.43
2017-09-27T07:01:50.533Z,81.62
2017-09-27T07:02:50.550Z,81.13
2017-09-27T07:04:45.034Z,80.94
2017-09-27T07:05:45.071Z,80.76
2017-09-27T07:07:39.492Z,81.33
2017-09-27T07:08:39.516Z,81.43
2017-09-27T07:10:33.997Z,80.94
2017-09-27T07:11:34.077Z,81.33
2017-09-27T07:13:28.509Z,81.08
2017-09-27T07:14:28.549Z,81.27
2017-09-27T07:16:23.061Z,81.27
2017-09-27T07:17:23.037Z,80.79
2017-09-27T07:19:16.517Z,80.79
2017-09-27T07:20:25.187Z,80.60
2017-09-27T07:22:11.005Z,80.74
2017-09-27T07:23:11.037Z,80.89
2017-09-27T07:25:05.525Z,80.35
2017-09-27T07:26:05.541Z,80.45
2017-09-27T07:28:00.006Z,80.55
2017-09-27T07:29:00.063Z,80.55
2017-09-27T07:30:54.533Z,79.78
2017-09-27T07:31:54.566Z,79.49
2017-09-27T07:33:48.287Z,78.82
2017-09-27T07:34:48.270Z,79.24
2017-09-27T07:36:42.726Z,79.63
2017-09-27T07:37:42.782Z,78.86
2017-09-27T07:39:36.240Z,78.09
2017-09-27T07:40:36.286Z,78.67
2017-09-27T07:42:30.862Z,78.23
2017-09-27T07:43:30.763Z,78.23
2017-09-27T07:45:25.254Z,77.75
2017-09-27T07:46:25.294Z,77.26
2017-09-27T07:48:19.806Z,77.40
2017-09-27T07:49:19.846Z,77.21
2017-09-27T07:51:14.278Z,77.11
2017-09-27T07:52:14.303Z,76.44
2017-09-27T07:54:08.847Z,77.01
2017-09-27T07:55:08.846Z,76.06
2017-09-27T07:57:03.266Z,76.15
2017-09-27T07:58:03.311Z,76.77
2017-09-27T07:59:57.830Z,75.90
2017-09-27T08:00:57.843Z,75.81
2017-09-27T08:02:52.311Z,75.52
2017-09-27T08:03:52.359Z,75.90
2017-09-27T08:05:46.816Z,75.71
2017-09-27T08:06:46.848Z,75.52
2017-09-27T08:08:52.911Z,75.23
2017-09-27T08:09:52.887Z,75.46
2017-09-27T08:11:46.344Z,75.17
2017-09-27T08:12:46.392Z,74.98
2017-09-27T08:14:42.451Z,75.17
2017-09-27T08:15:42.507Z,74.60
2017-09-27T08:17:36.994Z,74.50
2017-09-27T08:18:37.090Z,74.05
2017-09-27T08:20:31.491Z,74.05
2017-09-27T08:21:31.525Z,74.44
2017-09-27T08:23:25.964Z,73.77
2017-09-27T08:24:26.003Z,73.19
2017-09-27T08:26:20.692Z,72.61
2017-09-27T08:27:29.275Z,73.22
2017-09-27T08:29:15.003Z,72.94
2017-09-27T08:30:15.050Z,72.65
2017-09-27T08:32:09.554Z,72.74
2017-09-27T08:33:09.547Z,72.36
2017-09-27T08:35:04.051Z,71.78
2017-09-27T08:36:04.115Z,72.26
2017-09-27T08:37:58.638Z,72.65
2017-09-27T08:38:58.627Z,72.26
2017-09-27T08:40:53.075Z,71.91
2017-09-27T08:41:53.123Z,71.24
2017-09-27T08:43:55.403Z,71.08
2017-09-27T08:44:47.643Z,70.31
2017-09-27T08:46:42.131Z,69.83
2017-09-27T08:47:42.195Z,69.93
2017-09-27T08:49:36.659Z,69.09
2017-09-27T08:50:36.720Z,68.80
2017-09-27T08:52:31.155Z,68.45
2017-09-27T08:53:31.196Z,67.49
2017-09-27T08:55:25.715Z,67.33
2017-09-27T08:56:25.739Z,67.62
2017-09-27T08:58:20.235Z,67.55
2017-09-27T08:59:20.251Z,66.40
2017-09-27T09:01:14.753Z,66.30
2017-09-27T09:02:14.764Z,66.05
2017-09-27T09:04:09.276Z,65.85
2017-09-27T09:05:09.315Z,65.17
2017-09-27T09:07:03.772Z,65.47
2017-09-27T09:08:03.844Z,65.08
2017-09-27T09:09:58.308Z,65.30
2017-09-27T09:10:58.365Z,64.82
2017-09-27T09:12:52.835Z,64.63
2017-09-27T09:13:52.876Z,63.56
2017-09-27T09:15:47.404Z,62.79
2017-09-27T09:16:56.076Z,63.02
2017-09-27T09:18:41.933Z,62.73
2017-09-27T09:19:41.924Z,62.34
2017-09-27T09:21:35.427Z,62.66
2017-09-27T09:22:35.468Z,61.98
2017-09-27T09:24:30.173Z,62.08
2017-09-27T09:25:29.982Z,62.30
2017-09-27T09:27:24.509Z,61.53
2017-09-27T09:28:24.494Z,60.21
2017-09-27T09:30:20.469Z,60.59
2017-09-27T09:31:20.510Z,60.14
2017-09-27T09:33:35.349Z,59.94
2017-09-27T09:34:26.613Z,59.36
2017-09-27T09:36:32.627Z,59.20
2017-09-27T09:37:32.693Z,57.55
2017-09-27T09:39:27.173Z,58.91
2017-09-27T09:40:27.221Z,57.29
2017-09-27T09:42:21.725Z,57.09
2017-09-27T09:43:21.773Z,57.03
2017-09-27T09:45:27.782Z,54.80
2017-09-27T09:46:27.821Z,55.08
2017-09-27T09:48:23.781Z,53.73
2017-09-27T09:49:23.837Z,54.44
2017-09-27T09:51:29.862Z,54.46
2017-09-27T09:52:29.902Z,53.20
2017-09-27T09:54:24.358Z,52.35
2017-09-27T09:55:24.414Z,52.84
2017-09-27T09:57:20.478Z,52.45
2017-09-27T09:58:20.470Z,52.57
2017-09-27T10:00:26.670Z,50.53
2017-09-27T10:01:26.734Z,49.87
2017-09-27T10:03:22.222Z,50.16
2017-09-27T10:04:22.230Z,49.61
2017-09-27T10:06:16.758Z,49.92
2017-09-27T10:07:16.782Z,49.92
2017-09-27T10:09:12.854Z,48.36
2017-09-27T10:10:12.823Z,48.97
2017-09-27T10:12:07.318Z,47.15
2017-09-27T10:13:07.344Z,45.59
2017-09-27T10:15:01.847Z,43.84
2017-09-27T10:16:01.887Z,44.44
2017-09-27T10:17:55.374Z,44.95
2017-09-27T10:18:55.406Z,43.78
2017-09-27T10:20:49.928Z,43.22
2017-09-27T10:21:49.991Z,41.46
2017-09-27T10:23:44.465Z,40.14
2017-09-27T10:24:44.498Z,41.02
2017-09-27T10:26:38.959Z,40.64
2017-09-27T10:27:39.007Z,39.57
2017-09-27T10:29:33.728Z,39.49
2017-09-27T10:30:33.752Z,38.51
2017-09-27T10:32:28.223Z,38.84
2017-09-27T10:33:28.311Z,37.67
2017-09-27T10:35:22.784Z,37.69
2017-09-27T10:36:22.839Z,35.85
2017-09-27T10:38:17.296Z,36.74
2017-09-27T10:39:17.357Z,34.59
2017-09-27T10:41:11.904Z,36.18
2017-09-27T10:42:11.976Z,34.52
2017-09-27T10:44:06.368Z,35.89
2017-09-27T10:45:06.416Z,35.11
2017-09-27T10:47:02.464Z,35.10
2017-09-27T10:48:02.482Z,35.42
2017-09-27T10:49:56.952Z,33.67
2017-09-27T10:50:57.013Z,33.00
2017-09-27T10:52:50.520Z,32.84
2017-09-27T10:53:50.584Z,31.85
2017-09-27T10:55:44.078Z,30.59
2017-09-27T10:56:44.088Z,30.31
2017-09-27T10:58:38.592Z,28.06
2017-09-27T10:59:38.624Z,28.56
2017-09-27T11:01:32.154Z,26.71
2017-09-27T11:02:32.172Z,27.11
2017-09-27T11:04:25.665Z,26.55
2017-09-27T11:05:25.702Z,27.15
2017-09-27T11:07:20.201Z,25.20
2017-09-27T11:08:20.576Z,25.10
2017-09-27T11:10:13.737Z,23.55
2017-09-27T11:11:13.777Z,25.34
2017-09-27T11:13:08.337Z,22.78
2017-09-27T11:14:08.313Z,22.89
2017-09-27T11:16:02.829Z,22.81
2017-09-27T11:17:02.858Z,21.42
2017-09-27T11:18:57.370Z,21.73
2017-09-27T11:19:57.437Z,20.65
2017-09-27T11:21:51.996Z,19.97
2017-09-27T11:22:51.957Z,19.98
2017-09-27T11:24:46.461Z,18.30
2017-09-27T11:25:46.501Z,18.70
2017-09-27T11:27:40.067Z,16.80
2017-09-27T11:28:40.035Z,17.30
2017-09-27T11:30:33.516Z,17.91
2017-09-27T11:31:33.556Z,16.61
2017-09-27T11:33:28.059Z,17.51
2017-09-27T11:34:28.091Z,16.42
2017-09-27T11:36:22.579Z,16.80
2017-09-27T11:37:22.643Z,18.38
2017-09-27T11:39:17.124Z,18.28
2017-09-27T11:40:17.347Z,19.18
2017-09-27T11:42:11.284Z,18.40
2017-09-27T11:43:11.059Z,18.10
2017-09-27T11:45:04.339Z,17.19
2017-09-27T11:46:07.140Z,17.38
2017-09-27T11:48:00.707Z,18.66
2017-09-27T11:49:00.755Z,18.26
2017-09-27T11:50:57.239Z,18.54
2017-09-27T11:51:54.748Z,20.22
2017-09-27T11:53:48.844Z,21.41
2017-09-27T11:54:48.860Z,20.83
2017-09-27T11:56:43.388Z,18.41
2017-09-27T11:57:43.508Z,18.75
2017-09-27T11:59:38.188Z,16.50
2017-09-27T12:00:38.052Z,15.41
2017-09-27T12:02:31.213Z,15.53
2017-09-27T12:03:31.492Z,14.34
2017-09-27T12:05:28.452Z,13.15
2017-09-27T12:06:28.445Z,12.66
2017-09-27T12:08:34.844Z,12.07
2017-09-27T12:09:34.829Z,13.70
2017-09-27T12:11:28.209Z,12.49
2017-09-27T12:12:28.405Z,10.58
2017-09-27T12:14:23.477Z,10.88
2017-09-27T12:15:23.133Z,10.78
2017-09-27T12:17:16.837Z,10.79
2017-09-27T12:18:16.789Z,9.99
2017-09-27T12:20:12.269Z,10.00
2017-09-27T12:21:12.109Z,9.30
2017-09-27T12:23:05.477Z,10.62
2017-09-27T12:24:06.293Z,8.29
2017-09-27T12:26:00.046Z,9.62
2017-09-27T12:27:02.630Z,10.13
2017-09-27T12:28:54.645Z,6.79
2017-09-27T12:29:54.638Z,8.40
2017-09-27T12:31:49.598Z,7.39
2017-09-27T12:32:49.374Z,8.40
2017-09-27T12:34:43.030Z,9.02
2017-09-27T12:35:43.078Z,8.92
2017-09-27T12:37:37.246Z,6.60
2017-09-27T12:38:38.806Z,6.40
2017-09-27T12:40:31.863Z,5.99
2017-09-27T12:41:33.040Z,6.81
2017-09-27T12:43:37.070Z,5.99
2017-09-27T12:44:38.342Z,5.68
2017-09-27T12:46:33.846Z,5.89
2017-09-27T12:47:33.854Z,5.28
2017-09-27T12:49:27.142Z,5.38
2017-09-27T12:50:26.999Z,5.18
2017-09-27T12:52:21.703Z,5.38
2017-09-27T12:53:21.647Z,6.10
2017-09-27T12:55:17.967Z,6.10
2017-09-27T12:56:18.024Z,5.59
2017-09-27T12:58:12.471Z,5.85
2017-09-27T12:59:12.543Z,7.47
2017-09-27T13:01:06.112Z,6.99
2017-09-27T13:02:07.496Z,6.19
2017-09-27T13:04:13.703Z,5.79
2017-09-27T13:05:14.184Z,5.99
2017-09-27T13:07:08.264Z,6.81
2017-09-27T13:08:08.440Z,5.38
2017-09-27T13:10:03.048Z,5.79
2017-09-27T13:11:02.896Z,4.77
2017-09-27T13:12:57.600Z,6.09
2017-09-27T13:13:57.497Z,7.42
2017-09-27T13:15:53.312Z,5.58
2017-09-27T13:16:53.386Z,5.58
2017-09-27T13:18:55.144Z,6.91
2017-09-27T13:19:48.272Z,5.58
2017-09-27T13:21:41.639Z,5.79
2017-09-27T13:22:43.760Z,5.58
2017-09-27T13:24:37.296Z,6.20
2017-09-27T13:25:36.824Z,6.19
2017-09-27T13:27:30.856Z,5.98
2017-09-27T13:28:30.649Z,6.90
2017-09-27T13:30:23.960Z,5.47
2017-09-27T13:31:24.040Z,5.87
2017-09-27T13:33:29.025Z,7.29
2017-09-27T13:34:29.016Z,7.29
2017-09-27T13:36:25.121Z,6.77
2017-09-27T13:37:25.913Z,6.67
2017-09-27T13:39:19.825Z,6.57
2017-09-27T13:40:20.072Z,6.56
2017-09-27T13:42:16.073Z,7.24
2017-09-27T13:43:16.097Z,7.72
2017-09-27T13:45:09.826Z,10.59
2017-09-27T13:46:09.842Z,10.38
2017-09-27T13:48:04.145Z,10.56
2017-09-27T13:49:04.417Z,12.04
2017-09-27T13:50:58.961Z,12.34
2017-09-27T13:51:58.688Z,12.43
2017-09-27T13:53:53.209Z,15.11
2017-09-27T13:54:53.393Z,13.81
2017-09-27T13:56:47.514Z,14.88
2017-09-27T13:57:47.530Z,14.47
2017-09-27T13:59:43.013Z,15.05
2017-09-27T14:00:43.362Z,16.82
2017-09-27T14:02:37.586Z,17.40
2017-09-27T14:03:37.978Z,18.99
2017-09-27T14:05:33.588Z,18.67
2017-09-27T14:06:33.690Z,19.95
2017-09-27T14:08:28.217Z,18.35
2017-09-27T14:09:28.170Z,18.06
2017-09-27T14:11:24.010Z,18.74
2017-09-27T14:12:23.810Z,18.63
2017-09-27T14:14:17.410Z,19.81
2017-09-27T14:15:17.394Z,20.79
2017-09-27T14:17:11.939Z,20.68
2017-09-27T14:18:11.924Z,20.97
2017-09-27T14:20:06.370Z,20.27
2017-09-27T14:21:06.659Z,21.45
2017-09-27T14:22:59.619Z,22.13
2017-09-27T14:23:59.659Z,21.15
2017-09-27T14:25:56.947Z,21.73
2017-09-27T14:26:57.083Z,21.83
2017-09-27T14:29:01.948Z,21.33
2017-09-27T14:30:02.003Z,21.83
2017-09-27T14:31:57.700Z,21.91
2017-09-27T14:32:56.491Z,21.81
2017-09-27T14:34:51.219Z,21.72
2017-09-27T14:35:51.075Z,22.69
2017-09-27T14:37:44.563Z,22.98
2017-09-27T14:38:44.627Z,22.48
2017-09-27T14:40:39.083Z,23.07
2017-09-27T14:41:39.179Z,23.17
2017-09-27T14:43:37.188Z,23.25
2017-09-27T14:44:36.995Z,23.65
2017-09-27T14:46:31.396Z,24.03
2017-09-27T14:47:31.443Z,23.74
2017-09-27T14:49:26.347Z,24.42
2017-09-27T14:50:33.612Z,24.13
2017-09-27T14:52:19.468Z,24.31
2017-09-27T14:53:19.500Z,24.60
2017-09-27T14:55:14.028Z,24.99
2017-09-27T14:56:14.060Z,25.60
2017-09-27T14:58:08.500Z,25.21
2017-09-27T14:59:08.539Z,25.12
2017-09-27T15:01:03.036Z,25.43
2017-09-27T15:02:03.069Z,24.54
2017-09-27T15:03:59.468Z,24.26
2017-09-27T15:04:59.596Z,23.47
2017-09-27T15:06:52.732Z,23.97
2017-09-27T15:07:52.796Z,23.39
2017-09-27T15:09:47.340Z,23.38
2017-09-27T15:10:47.340Z,23.17
2017-09-27T15:12:41.788Z,22.75
2017-09-27T15:13:41.844Z,23.34
2017-09-27T15:15:36.341Z,23.03
2017-09-27T15:16:36.371Z,24.11
2017-09-27T15:18:29.844Z,24.10
2017-09-27T15:19:29.908Z,23.80
2017-09-27T15:21:28.348Z,24.37
2017-09-27T15:22:28.412Z,24.76
2017-09-27T15:24:23.052Z,24.95
2017-09-27T15:25:22.828Z,25.55
2017-09-27T15:27:16.076Z,25.54
2017-09-27T15:28:16.101Z,25.73
2017-09-27T15:30:10.604Z,26.03
2017-09-27T15:31:10.852Z,26.22
2017-09-27T15:33:05.149Z,26.33
2017-09-27T15:34:05.172Z,26.44
2017-09-27T15:35:59.693Z,26.34
2017-09-27T15:36:59.708Z,26.34
2017-09-27T15:38:54.204Z,26.15
2017-09-27T15:39:54.213Z,25.95
2017-09-27T15:41:48.781Z,26.15
2017-09-27T15:42:48.781Z,26.15
2017-09-27T15:44:43.316Z,26.33
2017-09-27T15:45:43.293Z,26.43
2017-09-27T15:47:36.813Z,26.90
2017-09-27T15:48:36.821Z,27.00
2017-09-27T15:50:31.294Z,27.49
2017-09-27T15:51:31.334Z,27.98
2017-09-27T15:53:25.837Z,27.97
2017-09-27T15:54:25.877Z,29.61
2017-09-27T15:56:20.382Z,29.81
2017-09-27T15:57:20.397Z,30.58
2017-09-27T15:59:14.869Z,30.19
2017-09-27T16:00:14.917Z,30.66
2017-09-27T16:02:09.445Z,30.86
2017-09-27T16:03:09.485Z,30.65
2017-09-27T16:05:04.053Z,31.04
2017-09-27T16:06:03.991Z,31.23
2017-09-27T16:07:58.526Z,31.90
2017-09-27T16:08:58.590Z,32.29
2017-09-27T16:10:55.773Z,32.28
2017-09-27T16:11:55.094Z,32.37
2017-09-27T16:13:48.310Z,33.04
2017-09-27T16:14:48.334Z,33.53
2017-09-27T16:16:44.079Z,33.02
2017-09-27T16:17:44.309Z,33.41
2017-09-27T16:19:38.631Z,33.51
2017-09-27T16:20:38.534Z,34.00
2017-09-27T16:22:33.030Z,34.17
2017-09-27T16:23:33.078Z,34.37
2017-09-27T16:25:26.726Z,34.17
2017-09-27T16:26:26.598Z,34.76
2017-09-27T16:28:21.142Z,35.13
2017-09-27T16:29:21.189Z,35.03
2017-09-27T16:31:17.718Z,35.42
2017-09-27T16:32:17.789Z,35.70
2017-09-27T16:34:11.970Z,36.18
2017-09-27T16:35:12.006Z,36.28
2017-09-27T16:37:05.494Z,36.75
2017-09-27T16:38:05.517Z,36.85
2017-09-27T16:40:00.038Z,37.52
2017-09-27T16:41:00.148Z,37.62
2017-09-27T16:42:53.644Z,37.72
2017-09-27T16:43:53.772Z,38.09
2017-09-27T16:45:47.196Z,38.19
2017-09-27T16:46:55.820Z,38.77
2017-09-27T16:48:42.324Z,39.04
2017-09-27T16:49:42.892Z,39.04
2017-09-27T16:51:35.412Z,39.34
2017-09-27T16:52:35.516Z,39.34
2017-09-27T16:54:29.998Z,39.92
2017-09-27T16:55:30.044Z,39.90
2017-09-27T16:57:24.477Z,40.39
2017-09-27T16:58:24.532Z,40.19
2017-09-27T17:00:27.810Z,40.77
2017-09-27T17:01:19.068Z,40.85
2017-09-27T17:03:14.604Z,41.63
2017-09-27T17:04:14.717Z,41.33
2017-09-27T17:06:10.725Z,41.22
2017-09-27T17:07:11.060Z,41.53
2017-09-27T17:09:04.373Z,42.48
2017-09-27T17:10:04.301Z,42.96
2017-09-27T17:12:11.557Z,42.75
2017-09-27T17:13:11.509Z,42.75
2017-09-27T17:15:16.157Z,43.82
2017-09-27T17:16:05.765Z,43.33
2017-09-27T17:17:59.262Z,43.72
2017-09-27T17:18:59.326Z,44.30
2017-09-27T17:20:54.086Z,44.57
2017-09-27T17:21:54.109Z,44.76
2017-09-27T17:23:48.608Z,44.86
2017-09-27T17:24:48.637Z,45.25
2017-09-27T17:26:46.807Z,45.51
2017-09-27T17:27:45.405Z,45.32
2017-09-27T17:29:38.798Z,45.51
2017-09-27T17:30:49.046Z,45.81
2017-09-27T17:32:34.820Z,46.46
2017-09-27T17:33:34.340Z,46.36
2017-09-27T17:35:26.700Z,46.56
2017-09-27T17:36:26.478Z,46.36
2017-09-27T17:38:32.050Z,46.84
2017-09-27T17:39:31.931Z,46.94
2017-09-27T17:41:26.323Z,47.89
2017-09-27T17:42:27.449Z,47.79
2017-09-27T17:44:21.979Z,47.50
2017-09-27T17:45:21.544Z,48.08
2017-09-27T17:47:26.897Z,48.08
2017-09-27T17:48:27.217Z,48.06
2017-09-27T17:50:20.679Z,48.35
2017-09-27T17:51:20.568Z,48.44
2017-09-27T17:53:16.720Z,48.74
2017-09-27T17:54:16.870Z,49.22
2017-09-27T17:56:12.432Z,49.22
2017-09-27T17:57:11.056Z,49.12
2017-09-27T17:59:07.126Z,49.68
2017-09-27T18:00:07.238Z,49.60
2017-09-27T18:02:04.110Z,49.87
2017-09-27T18:04:59.606Z,49.97
2017-09-27T18:07:49.382Z,50.45
2017-09-27T18:08:50.901Z,50.81
2017-09-27T18:10:42.708Z,50.91
2017-09-27T18:11:53.007Z,51.01
2017-09-27T18:13:37.151Z,51.39
2017-09-27T18:14:37.183Z,51.59
2017-09-27T18:16:31.892Z,51.87
2017-09-27T18:17:33.092Z,51.78
2017-09-27T18:19:25.621Z,51.78
2017-09-27T18:20:25.532Z,52.14
2017-09-27T18:22:20.213Z,51.95
2017-09-27T18:23:20.845Z,52.04
2017-09-27T18:25:15.221Z,52.33
2017-09-27T18:26:16.349Z,52.72
2017-09-27T18:28:08.788Z,53.30
2017-09-27T18:29:09.207Z,53.39
2017-09-27T18:31:02.733Z,53.20
2017-09-27T18:32:02.349Z,53.59
2017-09-27T18:33:56.312Z,53.47
2017-09-27T18:34:55.957Z,54.05
2017-09-27T18:36:50.637Z,54.14
2017-09-27T18:37:50.397Z,53.85
2017-09-27T18:39:45.244Z,54.14
2017-09-27T18:40:45.183Z,54.14
2017-09-27T18:42:40.909Z,54.14
2017-09-27T18:43:50.006Z,54.82
2017-09-27T18:45:35.381Z,54.43
2017-09-27T18:46:35.685Z,54.98
2017-09-27T18:48:40.509Z,54.98
2017-09-27T18:49:40.509Z,54.79
2017-09-27T18:51:35.181Z,55.36
2017-09-27T18:52:35.030Z,55.56
2017-09-27T18:54:37.358Z,55.27
2017-09-27T18:55:30.262Z,55.94
2017-09-27T18:57:34.941Z,55.76